Aeroporto :
LOGIN :

Iscrizione | Disclaimer

   EN    FR    IT 

 










Sommario :    VFR   VFR Marginale   IFR   IFR Intensivo   IFR Molto Intensivo
Visibilità : 
Base nubi : 
>= 8 km
>= 3000ft
5 / 8 km
1000 / 3000 ft
1500m / 5 km
500 / 1000 ft
800 / 1500m
200 / 500 ft
< 800m
< 200 ft
Simboli :   Temporali  Nebbia  Neve Forte  Precipitazioni Forti  Vento > 20 kt
SIGMETs :   Varie  Temporali  Ghiacco  Turbolenza  Onda orograficha  Ceneri Vulcaniche






- Altitudine del aeroporto : 156 ft
- Codice IATA : LCC


LIBN - Lecce Galatine (military)

ULTIMO METAR :
  • 171455Z 26006KT CAVOK 15/09 Q1024 RMK SKC VIS MIN 9999 WIND THR14 25006KT WIND THR32 25007KT BLU

METARs OBSOLETI :
  • 171355Z 26007KT CAVOK 16/09 Q1024 RMK SKC VIS MIN 9999 WIND THR14 27006KT WIND THR32 27007KT BLU
  • 171255Z 25005KT CAVOK 15/05 Q1025 RMK SKC VIS MIN 9999 WIND THR14 23005KT WIND THR32 27005KT BLU
  • 171155Z 33003KT CAVOK 15/06 Q1026 RMK SKC VIS MIN 9999 WIND THR14 28006KT WIND THR32 28003KT BLU

TAF TAF LIBN
Valido dal 17 a 15 ore il 18 a 00 ore UTC


171400Z 1715/1724 25007KT CAVOK



MetMap, La meteo Aeronautica in un colpo d'occhio ! - Copyright ORBIFLY Dicembre 2007 - Disclaimer

ORBIFLY MET'MAP TEAM :

Programmazione e sviluppo : Alexandra Zaïnal
Concezione : Baudouin d'Aumeries
Aiuto per la programmazione : Marc-Olivier Méhu
Supporto tecnico e logistico : Manuel Goepfert
Aiuto per la traduzione : Arnaldo La Scala

Contatto : metmap@orbifly.com




FONTI E CREDITI :

   NOAA